Latest Weather Observations for Fort Denison

IDN60801

Issued at 9:02 pm EDT Wednesday 18 January 2017 (issued every 30 minutes, with the page automatically refreshed every 10 minutes)

About weather observations | Map of weather stations | Latest weather observations for NSW | Other Formats
Station Details ID: 066022 Name: FORT DENISON Lat: -33.86 Lon: 151.23 Height: 5.0 m
Data from the previous 72 hours. | See also: Recent months for locations in New South Wales
Date/Time
EDT
Temp
°C
App
Temp
°C
Dew
Point
°C
Rel
Hum
%
Delta-T
°C
Wind Press
QNH
hPa
Press
MSL
hPa
Rain since
9am
mm
Dir  Spd
km/h
Gust
km/h
Spd
kts
Gust
kts
18/09:00pm - - - - - SSE 24 24 13 13 - - -
18/08:43pm - - - - - SSE 28 46 15 25 - - -
18/08:30pm - - - - - SSE 26 39 14 21 - - -
18/08:05pm - - - - - SSE 30 48 16 26 - - -
18/08:00pm - - - - - SSE 26 39 14 21 - - -
18/07:30pm - - - - - SSE 32 46 17 25 - - -
18/07:00pm - - - - - SSE 33 44 18 24 - - -
18/06:30pm - - - - - SSE 35 54 19 29 - - -
18/06:02pm - - - - - SSE 30 48 16 26 - - -
18/06:00pm - - - - - SSE 28 43 15 23 - - -
18/05:52pm - - - - - SSE 30 48 16 26 - - -
18/05:30pm - - - - - SSE 33 50 18 27 - - -
18/05:00pm - - - - - SSE 37 59 20 32 - - -
18/04:41pm - - - - - SSE 32 50 17 27 - - -
18/04:30pm - - - - - SE 33 50 18 27 - - -
18/04:21pm - - - - - SE 33 52 18 28 - - -
18/04:00pm - - - - - SSE 35 52 19 28 - - -
18/03:31pm - - - - - SSE 32 52 17 28 - - -
18/03:30pm - - - - - SSE 32 48 17 26 - - -
18/03:00pm - - - - - SSE 32 50 17 27 - - -
18/02:31pm - - - - - SSE 33 52 18 28 - - -
18/02:30pm - - - - - SSE 32 48 17 26 - - -
18/02:00pm - - - - - SSE 28 43 15 23 - - -
18/01:30pm - - - - - SSE 22 37 12 20 - - -
18/01:00pm - - - - - SSE 24 33 13 18 - - -
18/12:30pm - - - - - SE 19 28 10 15 - - -
18/12:00pm - - - - - SSE 20 30 11 16 - - -
18/11:30am - - - - - SSE 30 43 16 23 - - -
18/11:00am - - - - - S 22 37 12 20 - - -
18/10:30am - - - - - SSE 30 44 16 24 - - -
18/10:00am - - - - - SSE 33 50 18 27 - - -
18/09:41am - - - - - SSW 26 44 14 24 - - -
18/09:30am - - - - - W 22 32 12 17 - - -
18/09:00am - - - - - WNW 20 24 11 13 - - -
18/08:30am - - - - - WNW 24 35 13 19 - - -
18/08:00am - - - - - WNW 15 28 8 15 - - -
18/07:30am - - - - - NW 20 30 11 16 - - -
18/07:00am - - - - - WNW 11 15 6 8 - - -
18/06:30am - - - - - WNW 13 19 7 10 - - -
18/06:00am - - - - - W 13 17 7 9 - - -
18/05:30am - - - - - WNW 15 20 8 11 - - -
18/05:00am - - - - - WNW 13 17 7 9 - - -
18/04:30am - - - - - WNW 15 20 8 11 - - -
18/04:00am - - - - - W 6 9 3 5 - - -
18/03:30am - - - - - NW 4 6 2 3 - - -
18/03:00am - - - - - NW 4 7 2 4 - - -
18/02:30am - - - - - NW 2 4 1 2 - - -
18/02:00am - - - - - SE 2 2 1 1 - - -
18/01:30am - - - - - CALM 0 2 0 1 - - -
18/01:00am - - - - - CALM 0 2 0 1 - - -
18/12:30am - - - - - SE 2 4 1 2 - - -
18/12:00am - - - - - SE 7 11 4 6 - - -
 
Date/Time
EDT
Temp
°C
App
Temp
°C
Dew
Point
°C
Rel
Hum
%
Delta-T
°C
Wind Press
QNH
hPa
Press
MSL
hPa
Rain since
9am
mm
Dir  Spd
km/h
Gust
km/h
Spd
kts
Gust
kts
17/11:30pm - - - - - ESE 11 15 6 8 - - -
17/11:00pm - - - - - E 13 17 7 9 - - -
17/10:30pm - - - - - E 19 20 10 11 - - -
17/10:00pm - - - - - E 11 15 6 8 - - -
17/09:30pm - - - - - ESE 13 26 7 14 - - -
17/09:00pm - - - - - E 7 13 4 7 - - -
17/08:30pm - - - - - NE 11 20 6 11 - - -
17/08:00pm - - - - - NNE 22 32 12 17 - - -
17/07:30pm - - - - - NNE 30 46 16 25 - - -
17/07:06pm - - - - - NNE 30 50 16 27 - - -
17/07:00pm - - - - - NNE 28 41 15 22 - - -
17/06:30pm - - - - - NNE 28 39 15 21 - - -
17/06:00pm - - - - - NE 28 35 15 19 - - -
17/05:30pm - - - - - NNE 30 37 16 20 - - -
17/05:00pm - - - - - NNE 30 39 16 21 - - -
17/04:30pm - - - - - NNE 24 30 13 16 - - -
17/04:00pm - - - - - NNE 24 35 13 19 - - -
17/03:30pm - - - - - NNE 22 33 12 18 - - -
17/03:00pm - - - - - ENE 11 19 6 10 - - -
17/02:30pm - - - - - ENE 13 19 7 10 - - -
17/02:00pm - - - - - E 13 22 7 12 - - -
17/01:30pm - - - - - ENE 17 22 9 12 - - -
17/01:00pm - - - - - E 20 26 11 14 - - -
17/12:30pm - - - - - E 19 22 10 12 - - -
17/12:00pm - - - - - E 19 22 10 12 - - -
17/11:30am - - - - - E 17 19 9 10 - - -
17/11:00am - - - - - E 15 19 8 10 - - -
17/10:30am - - - - - E 19 22 10 12 - - -
17/10:00am - - - - - E 15 19 8 10 - - -
17/09:30am - - - - - ESE 9 11 5 6 - - -
17/09:00am - - - - - ESE 6 7 3 4 - - -
17/08:30am - - - - - W 7 11 4 6 - - -
17/08:00am - - - - - W 9 13 5 7 - - -
17/07:30am - - - - - W 6 9 3 5 - - -
17/07:00am - - - - - NNE 4 6 2 3 - - -
17/06:30am - - - - - NE 4 6 2 3 - - -
17/06:00am - - - - - WNW 6 13 3 7 - - -
17/05:30am - - - - - NW 2 6 1 3 - - -
17/05:00am - - - - - CALM 0 4 0 2 - - -
17/04:30am - - - - - NNE 6 9 3 5 - - -
17/04:00am - - - - - NE 4 7 2 4 - - -
17/03:30am - - - - - ENE 9 11 5 6 - - -
17/03:00am - - - - - E 9 11 5 6 - - -
17/02:30am - - - - - E 6 7 3 4 - - -
17/02:00am - - - - - ENE 4 6 2 3 - - -
17/01:30am - - - - - ENE 4 4 2 2 - - -
17/01:00am - - - - - ENE 4 6 2 3 - - -
17/12:30am - - - - - NNE 7 13 4 7 - - -
17/12:00am - - - - - NE 13 22 7 12 - - -
 
Date/Time
EDT
Temp
°C
App
Temp
°C
Dew
Point
°C
Rel
Hum
%
Delta-T
°C
Wind Press
QNH
hPa
Press
MSL
hPa
Rain since
9am
mm
Dir  Spd
km/h
Gust
km/h
Spd
kts
Gust
kts
16/11:30pm - - - - - NNE 13 22 7 12 - - -
16/11:00pm - - - - - NNE 9 19 5 10 - - -
16/10:30pm - - - - - NNE 17 32 9 17 - - -
16/10:00pm - - - - - NE 20 33 11 18 - - -
16/09:30pm - - - - - NE 20 33 11 18 - - -
16/09:00pm - - - - - NE 19 32 10 17 - - -
16/08:30pm - - - - - NE 22 35 12 19 - - -
16/08:00pm - - - - - NE 22 37 12 20 - - -
16/07:42pm - - - - - NE 28 46 15 25 - - -
16/07:30pm - - - - - NE 28 44 15 24 - - -
16/07:15pm - - - - - NE 30 48 16 26 - - -
16/07:00pm - - - - - NE 28 44 15 24 - - -
16/06:48pm - - - - - NE 28 46 15 25 - - -
16/06:30pm - - - - - NE 28 44 15 24 - - -
16/06:00pm - - - - - NE 32 48 17 26 - - -
16/05:33pm - - - - - NE 28 46 15 25 - - -
16/05:30pm - - - - - NE 30 44 16 24 - - -
16/05:20pm - - - - - NE 28 52 15 28 - - -
16/05:00pm - - - - - NE 26 44 14 24 - - -
16/04:30pm - - - - - NE 28 43 15 23 - - -
16/04:05pm - - - - - ENE 28 48 15 26 - - -
16/04:00pm - - - - - NE 28 41 15 22 - - -
16/03:30pm - - - - - NE 26 44 14 24 - - -
16/03:00pm - - - - - NE 28 44 15 24 - - -
16/02:35pm - - - - - NE 30 48 16 26 - - -
16/02:30pm - - - - - NE 30 44 16 24 - - -
16/02:00pm - - - - - NE 28 46 15 25 - - -
16/01:30pm - - - - - NE 28 46 15 25 - - -
16/01:00pm - - - - - NE 32 44 17 24 - - -
16/12:30pm - - - - - NE 28 43 15 23 - - -
16/12:00pm - - - - - NE 24 35 13 19 - - -
16/11:30am - - - - - NE 24 33 13 18 - - -
16/11:00am - - - - - NE 24 37 13 20 - - -
16/10:30am - - - - - ENE 24 33 13 18 - - -
16/10:00am - - - - - NE 20 28 11 15 - - -
16/09:30am - - - - - NNE 15 22 8 12 - - -
16/09:00am - - - - - NNE 22 30 12 16 - - -
16/08:30am - - - - - N 19 24 10 13 - - -
16/08:00am - - - - - N 15 20 8 11 - - -
16/07:30am - - - - - N 13 19 7 10 - - -
16/07:00am - - - - - N 11 13 6 7 - - -
16/06:30am - - - - - N 9 15 5 8 - - -
16/06:00am - - - - - NNE 7 13 4 7 - - -
16/05:30am - - - - - N 9 11 5 6 - - -
16/05:00am - - - - - N 7 9 4 5 - - -
16/04:30am - - - - - NNE 9 13 5 7 - - -
16/04:00am - - - - - NNE 11 19 6 10 - - -
16/03:30am - - - - - NNE 9 15 5 8 - - -
16/03:00am - - - - - NNE 9 15 5 8 - - -
16/02:30am - - - - - NE 6 9 3 5 - - -
16/02:00am - - - - - NE 9 15 5 8 - - -
16/01:30am - - - - - NNE 9 15 5 8 - - -
16/01:00am - - - - - NE 11 20 6 11 - - -
16/12:30am - - - - - NNE 13 20 7 11 - - -
16/12:00am - - - - - NNE 11 17 6 9 - - -
 
Date/Time
EDT
Temp
°C
App
Temp
°C
Dew
Point
°C
Rel
Hum
%
Delta-T
°C
Wind Press
QNH
hPa
Press
MSL
hPa
Rain since
9am
mm
Dir  Spd
km/h
Gust
km/h
Spd
kts
Gust
kts
15/11:30pm - - - - - NE 11 19 6 10 - - -
15/11:00pm - - - - - NE 13 22 7 12 - - -
15/10:30pm - - - - - NE 11 19 6 10 - - -
15/10:00pm - - - - - ENE 17 24 9 13 - - -
15/09:30pm - - - - - ENE 19 24 10 13 - - -

Other Formats:

Comma delimited format used in spreadsheet applications
http://www.bom.gov.au/fwo/IDN60801/IDN60801.94769.axf

JavaScript Object Notation format (JSON) in row-major order
http://www.bom.gov.au/fwo/IDN60801/IDN60801.94769.json